createdAt,value
2023-01-15T00:02:18.126Z,28.33
2023-01-15T00:04:45.725Z,28.15
2023-01-15T00:07:13.076Z,27.63
2023-01-15T00:09:40.482Z,32.00
2023-01-15T00:12:07.945Z,30.02
2023-01-15T00:14:35.375Z,27.50
2023-01-15T00:17:02.752Z,27.55
2023-01-15T00:19:30.183Z,27.65
2023-01-15T00:21:58.321Z,29.35
2023-01-15T00:24:44.453Z,29.70
2023-01-15T00:27:30.951Z,30.38
2023-01-15T00:29:58.401Z,30.45
2023-01-15T00:32:27.851Z,28.90
2023-01-15T00:34:56.133Z,27.48
2023-01-15T00:37:23.490Z,29.50
2023-01-15T00:39:50.926Z,26.92
2023-01-15T00:42:18.695Z,26.02
2023-01-15T00:44:46.978Z,27.83
2023-01-15T00:47:15.235Z,30.23
2023-01-15T00:49:43.131Z,29.95
2023-01-15T00:52:10.821Z,24.45
2023-01-15T00:54:38.377Z,26.67
2023-01-15T00:57:05.810Z,28.33
2023-01-15T00:59:33.325Z,29.38
2023-01-15T01:02:00.820Z,28.15
2023-01-15T01:04:28.399Z,27.30
2023-01-15T01:06:56.055Z,27.17
2023-01-15T01:09:23.553Z,29.15
2023-01-15T01:11:51.204Z,31.00
2023-01-15T01:14:18.830Z,34.15
2023-01-15T01:16:46.215Z,32.17
2023-01-15T01:19:16.195Z,31.48
2023-01-15T01:21:45.950Z,31.50
2023-01-15T01:24:14.408Z,35.63
2023-01-15T01:26:44.048Z,29.90
2023-01-15T01:29:19.118Z,29.00
2023-01-15T01:31:46.651Z,32.90
2023-01-15T01:34:14.707Z,31.88
2023-01-15T01:36:44.018Z,29.65
2023-01-15T01:39:17.385Z,32.70
2023-01-15T01:41:45.643Z,32.58
2023-01-15T01:44:31.814Z,29.98
2023-01-15T01:47:02.348Z,30.50
2023-01-15T01:49:30.061Z,30.83
2023-01-15T01:52:00.157Z,33.45
2023-01-15T01:54:28.920Z,33.63
2023-01-15T01:56:56.335Z,34.80
2023-01-15T01:59:24.591Z,36.33
2023-01-15T02:01:53.444Z,37.45
2023-01-15T02:04:23.247Z,35.08
2023-01-15T02:06:52.274Z,37.03
2023-01-15T02:09:19.706Z,37.78
2023-01-15T02:11:47.374Z,36.90
2023-01-15T02:14:22.667Z,42.38
2023-01-15T02:19:23.357Z,41.25
2023-01-15T02:21:50.808Z,42.92
2023-01-15T02:24:32.382Z,40.97
2023-01-15T02:27:02.877Z,42.28
2023-01-15T02:29:45.874Z,44.22
2023-01-15T02:32:16.241Z,45.67
2023-01-15T02:34:47.554Z,38.78
2023-01-15T02:37:18.210Z,44.97
2023-01-15T02:39:46.947Z,42.38
2023-01-15T02:42:16.307Z,42.50
2023-01-15T02:44:49.830Z,40.60
2023-01-15T02:47:20.284Z,47.00
2023-01-15T02:49:48.836Z,41.40
2023-01-15T02:52:29.435Z,45.22
2023-01-15T02:55:01.684Z,43.10
2023-01-15T02:57:31.499Z,41.00
2023-01-15T03:00:02.438Z,45.33
2023-01-15T03:02:32.599Z,43.35
2023-01-15T03:05:06.832Z,46.10
2023-01-15T03:07:35.155Z,41.72
2023-01-15T03:10:03.084Z,42.08
2023-01-15T03:13:03.996Z,45.70
2023-01-15T03:16:09.217Z,42.00
2023-01-15T03:18:38.120Z,41.60
2023-01-15T03:21:07.912Z,45.90
2023-01-15T03:23:38.227Z,41.45
2023-01-15T03:26:06.061Z,45.22
2023-01-15T03:28:39.728Z,41.40
2023-01-15T03:31:07.431Z,44.72
2023-01-15T03:33:35.229Z,41.45
2023-01-15T03:36:04.283Z,42.75
2023-01-15T03:38:41.304Z,41.90
2023-01-15T03:44:06.624Z,37.55
2023-01-15T03:46:38.119Z,33.65
2023-01-15T03:49:16.164Z,40.70
2023-01-15T03:51:47.919Z,41.45
2023-01-15T03:54:22.914Z,43.53
2023-01-15T03:56:55.543Z,40.30
2023-01-15T03:59:29.308Z,40.15
2023-01-15T04:02:03.069Z,41.78
2023-01-15T04:04:32.197Z,36.53
2023-01-15T04:07:02.281Z,46.33
2023-01-15T04:09:30.845Z,40.05
2023-01-15T04:12:00.521Z,40.08
2023-01-15T04:14:31.924Z,43.60
2023-01-15T04:17:05.729Z,41.88
2023-01-15T04:19:33.518Z,39.78
2023-01-15T04:22:04.634Z,39.13
2023-01-15T04:24:32.056Z,39.30
2023-01-15T04:26:59.429Z,40.50
2023-01-15T04:29:26.943Z,37.63
2023-01-15T04:31:57.685Z,35.75
2023-01-15T04:34:26.718Z,40.50
2023-01-15T04:36:54.320Z,39.88
2023-01-15T04:39:22.160Z,39.72
2023-01-15T04:42:08.660Z,43.22
2023-01-15T04:44:36.546Z,45.70
2023-01-15T04:47:04.166Z,42.45
2023-01-15T04:49:31.727Z,44.30
2023-01-15T04:51:59.144Z,43.47
2023-01-15T04:54:26.676Z,45.25
2023-01-15T04:56:55.161Z,39.78
2023-01-15T04:59:23.747Z,41.08
2023-01-15T05:02:03.279Z,43.78
2023-01-15T05:04:33.372Z,39.55
2023-01-15T05:07:02.209Z,39.83
2023-01-15T05:09:29.716Z,50.85
2023-01-15T05:11:57.097Z,52.97
2023-01-15T05:14:24.567Z,64.00
2023-01-15T05:16:51.968Z,58.28
2023-01-15T05:19:19.428Z,54.45
2023-01-15T05:21:46.940Z,35.75
2023-01-15T05:24:15.703Z,32.88
2023-01-15T05:26:43.639Z,38.50
2023-01-15T05:29:11.832Z,35.65
2023-01-15T05:31:39.686Z,35.22
2023-01-15T05:34:07.181Z,34.33
2023-01-15T05:36:35.475Z,33.45
2023-01-15T05:39:02.864Z,34.20
2023-01-15T05:41:49.161Z,34.80
2023-01-15T05:44:18.588Z,32.78
2023-01-15T05:46:46.311Z,33.95
2023-01-15T05:49:15.428Z,36.20
2023-01-15T05:51:45.731Z,40.50
2023-01-15T05:54:15.268Z,44.67
2023-01-15T05:56:42.785Z,52.72
2023-01-15T05:59:10.326Z,59.13
2023-01-15T06:01:37.733Z,57.83
2023-01-15T06:04:06.282Z,54.15
2023-01-15T06:06:33.912Z,58.97
2023-01-15T06:09:01.419Z,56.67
2023-01-15T06:11:29.029Z,55.28
2023-01-15T06:13:56.637Z,57.70
2023-01-15T06:16:24.120Z,55.53
2023-01-15T06:18:51.656Z,45.35
2023-01-15T06:21:19.250Z,46.30
2023-01-15T06:23:46.721Z,46.92
2023-01-15T06:26:15.787Z,51.60
2023-01-15T06:28:43.444Z,45.05
2023-01-15T06:31:12.133Z,44.15
2023-01-15T06:33:39.829Z,42.75
2023-01-15T06:36:07.985Z,47.50
2023-01-15T06:38:35.539Z,50.10
2023-01-15T06:41:03.586Z,48.33
2023-01-15T06:43:49.426Z,46.53
2023-01-15T06:46:36.421Z,47.88
2023-01-15T06:49:03.906Z,51.75
2023-01-15T06:51:31.430Z,44.67
2023-01-15T06:53:58.948Z,44.38
2023-01-15T06:56:26.300Z,42.53
2023-01-15T06:58:56.115Z,42.60
2023-01-15T07:01:23.761Z,43.67
2023-01-15T07:03:51.238Z,42.08
2023-01-15T07:06:18.713Z,37.10
2023-01-15T07:08:46.243Z,40.72
2023-01-15T07:11:14.432Z,50.35
2023-01-15T07:13:41.799Z,55.80
2023-01-15T07:16:27.027Z,51.05
2023-01-15T07:18:59.841Z,50.63
2023-01-15T07:21:27.491Z,40.60
2023-01-15T07:23:55.412Z,45.28
2023-01-15T07:26:22.768Z,44.25
2023-01-15T07:28:50.223Z,47.88
2023-01-15T07:31:18.657Z,50.95
2023-01-15T07:33:46.096Z,45.15
2023-01-15T07:36:13.694Z,46.15
2023-01-15T07:38:41.055Z,49.22
2023-01-15T07:41:27.417Z,50.10
2023-01-15T07:44:13.343Z,50.22
2023-01-15T07:46:59.837Z,50.47
2023-01-15T07:49:47.590Z,46.80
2023-01-15T07:52:16.907Z,51.05
2023-01-15T07:54:44.703Z,51.10
2023-01-15T07:57:13.177Z,49.97
2023-01-15T07:59:40.621Z,48.60
2023-01-15T08:02:08.373Z,50.08
2023-01-15T08:04:35.941Z,49.17
2023-01-15T08:07:04.036Z,52.42
2023-01-15T08:09:31.531Z,46.10
2023-01-15T08:12:21.597Z,50.60
2023-01-15T08:15:07.692Z,299.70
2023-01-15T08:17:35.713Z,47.85
2023-01-15T08:20:07.239Z,50.08
2023-01-15T08:22:34.791Z,49.38
2023-01-15T08:25:02.251Z,48.03
2023-01-15T08:27:31.617Z,50.47
2023-01-15T08:30:00.342Z,46.20
2023-01-15T08:32:27.670Z,43.60
2023-01-15T08:34:55.145Z,44.78
2023-01-15T08:37:25.229Z,45.22
2023-01-15T08:39:54.589Z,47.08
2023-01-15T08:42:21.988Z,53.35
2023-01-15T08:44:49.977Z,64.68
2023-01-15T08:47:18.571Z,61.10
2023-01-15T08:49:48.235Z,35.50
2023-01-15T08:52:16.224Z,33.35
2023-01-15T08:54:43.770Z,30.92
2023-01-15T08:57:13.648Z,31.15
2023-01-15T08:59:43.425Z,34.08
2023-01-15T09:02:15.203Z,30.80
2023-01-15T09:04:42.786Z,35.30
2023-01-15T09:07:10.367Z,30.95
2023-01-15T09:09:37.847Z,32.53
2023-01-15T09:12:05.273Z,31.45
2023-01-15T09:14:58.504Z,30.98
2023-01-15T09:17:20.267Z,30.73
2023-01-15T09:19:47.883Z,30.25
2023-01-15T09:22:15.837Z,29.25
2023-01-15T09:24:43.277Z,29.77
2023-01-15T09:27:12.619Z,30.90
2023-01-15T09:29:40.846Z,31.27
2023-01-15T09:32:09.933Z,31.13
2023-01-15T09:34:37.441Z,36.10
2023-01-15T09:37:04.908Z,31.80
2023-01-15T09:39:32.391Z,32.10
2023-01-15T09:42:12.868Z,30.38
2023-01-15T09:44:46.626Z,32.55
2023-01-15T09:47:14.136Z,35.25
2023-01-15T09:49:44.487Z,31.35
2023-01-15T09:52:21.914Z,32.00
2023-01-15T09:54:49.523Z,29.60
2023-01-15T09:57:17.656Z,30.88
2023-01-15T09:59:46.043Z,28.17
2023-01-15T10:02:20.859Z,30.83
2023-01-15T10:04:50.879Z,29.65
2023-01-15T10:07:24.331Z,33.67
2023-01-15T10:09:56.513Z,32.50
2023-01-15T10:12:36.084Z,35.10
2023-01-15T10:15:07.480Z,35.95
2023-01-15T10:17:46.942Z,34.00
2023-01-15T10:20:17.730Z,34.75
2023-01-15T10:22:54.702Z,43.75
2023-01-15T10:25:25.982Z,38.50
2023-01-15T10:27:53.699Z,28.52
2023-01-15T10:30:30.365Z,31.35
2023-01-15T10:33:03.796Z,30.20
2023-01-15T10:35:33.826Z,41.83
2023-01-15T10:38:07.137Z,38.92
2023-01-15T10:40:40.972Z,38.78
2023-01-15T10:43:15.895Z,38.13
2023-01-15T10:45:52.834Z,43.22
2023-01-15T10:48:26.527Z,33.40
2023-01-15T10:50:54.616Z,40.08
2023-01-15T10:53:40.533Z,37.33
2023-01-15T10:56:15.652Z,40.28
2023-01-15T10:59:12.309Z,41.15
2023-01-15T11:01:41.539Z,41.85
2023-01-15T11:04:13.850Z,41.55
2023-01-15T11:06:42.553Z,38.95
2023-01-15T11:09:16.946Z,29.13
2023-01-15T11:12:01.236Z,25.50
2023-01-15T11:14:53.156Z,25.05
2023-01-15T11:17:40.588Z,24.98
2023-01-15T11:20:29.110Z,29.27
2023-01-15T11:22:57.311Z,28.33
2023-01-15T11:25:31.919Z,27.80
2023-01-15T11:28:00.874Z,23.42
2023-01-15T11:30:30.787Z,21.42
2023-01-15T11:32:59.195Z,22.90
2023-01-15T11:35:27.233Z,22.60
2023-01-15T11:38:08.607Z,23.08
2023-01-15T11:40:36.088Z,18.75
2023-01-15T11:43:22.406Z,21.60
2023-01-15T11:46:11.245Z,17.48
2023-01-15T11:49:04.767Z,23.17
2023-01-15T11:51:34.340Z,24.42
2023-01-15T11:54:05.896Z,17.77
2023-01-15T11:56:34.345Z,19.58
2023-01-15T11:59:10.061Z,21.35
2023-01-15T12:01:39.508Z,19.65
2023-01-15T12:04:08.619Z,18.92
2023-01-15T12:06:37.182Z,17.40
2023-01-15T12:09:16.847Z,21.05
2023-01-15T12:11:47.473Z,21.50
2023-01-15T12:14:33.817Z,15.52
2023-01-15T12:17:07.081Z,15.15
2023-01-15T12:19:37.646Z,14.35
2023-01-15T12:22:27.286Z,15.80
2023-01-15T12:25:02.442Z,19.45
2023-01-15T12:27:49.440Z,16.77
2023-01-15T12:30:22.819Z,19.15
2023-01-15T12:33:13.378Z,12.05
2023-01-15T12:36:02.240Z,14.10
2023-01-15T12:38:32.507Z,12.82
2023-01-15T12:41:02.992Z,13.55
2023-01-15T12:43:48.948Z,15.88
2023-01-15T12:46:36.849Z,14.13
2023-01-15T12:49:19.641Z,12.30
2023-01-15T12:51:56.703Z,16.17
2023-01-15T12:54:28.207Z,14.63
2023-01-15T12:57:04.275Z,13.30
2023-01-15T12:59:35.165Z,13.45
2023-01-15T13:02:12.025Z,14.68
2023-01-15T13:04:39.549Z,14.90
2023-01-15T13:07:18.199Z,10.73
2023-01-15T13:09:49.046Z,12.80
2023-01-15T13:12:17.248Z,13.88
2023-01-15T13:14:46.727Z,11.75
2023-01-15T13:17:33.054Z,13.57
2023-01-15T13:20:20.826Z,13.90
2023-01-15T13:23:07.138Z,9.60
2023-01-15T13:25:45.728Z,14.13
2023-01-15T13:28:13.290Z,14.30
2023-01-15T13:30:54.494Z,12.80
2023-01-15T13:33:40.860Z,14.40
2023-01-15T13:36:14.583Z,15.52
2023-01-15T13:38:44.434Z,17.27
2023-01-15T13:41:37.206Z,14.50
2023-01-15T13:44:04.755Z,13.52
2023-01-15T13:46:32.437Z,13.35
2023-01-15T13:48:59.965Z,17.02
2023-01-15T13:51:27.447Z,14.02
2023-01-15T13:53:55.667Z,13.10
2023-01-15T13:56:28.100Z,18.15
2023-01-15T13:58:57.116Z,18.95
2023-01-15T14:01:24.663Z,22.88
2023-01-15T14:04:01.103Z,20.75
2023-01-15T14:06:48.011Z,16.38
2023-01-15T14:09:30.687Z,12.82
2023-01-15T14:12:04.363Z,15.48
2023-01-15T14:14:40.579Z,15.68
2023-01-15T14:17:17.079Z,13.52
2023-01-15T14:19:56.746Z,12.85
2023-01-15T14:23:02.826Z,15.32
2023-01-15T14:25:48.665Z,16.63
2023-01-15T14:28:35.561Z,17.17
2023-01-15T14:31:05.857Z,15.38
2023-01-15T14:33:51.584Z,17.13
2023-01-15T14:38:50.790Z,16.85
2023-01-15T14:41:26.241Z,19.38
2023-01-15T14:43:54.255Z,16.45
2023-01-15T14:46:37.357Z,20.70
2023-01-15T14:49:04.955Z,23.00
2023-01-15T14:51:33.500Z,24.25
2023-01-15T14:54:11.837Z,22.92
2023-01-15T14:56:44.856Z,28.90
2023-01-15T14:59:15.062Z,25.00
2023-01-15T15:01:49.608Z,33.40
2023-01-15T15:04:35.990Z,37.10
2023-01-15T15:07:23.203Z,35.55
2023-01-15T15:10:10.184Z,34.95
2023-01-15T15:12:46.476Z,28.30
2023-01-15T15:15:22.458Z,23.23
2023-01-15T15:18:01.972Z,20.58
2023-01-15T15:20:48.247Z,22.40
2023-01-15T15:23:27.740Z,22.20
2023-01-15T15:26:02.792Z,24.70
2023-01-15T15:28:30.457Z,56.53
2023-01-15T15:31:01.612Z,53.40
2023-01-15T15:33:39.933Z,62.70
2023-01-15T15:36:08.634Z,72.40
2023-01-15T15:38:40.348Z,47.53
2023-01-15T15:41:10.957Z,46.90
2023-01-15T15:44:06.064Z,40.85
2023-01-15T15:46:52.739Z,39.35
2023-01-15T15:49:20.719Z,49.00
2023-01-15T15:51:48.947Z,56.75
2023-01-15T15:54:19.772Z,69.25
2023-01-15T15:56:50.341Z,74.20
2023-01-15T15:59:28.454Z,67.85
2023-01-15T16:01:56.533Z,67.07
2023-01-15T16:04:24.518Z,115.30
2023-01-15T16:06:52.245Z,110.85
2023-01-15T16:09:23.995Z,116.38
2023-01-15T16:11:55.358Z,65.03
2023-01-15T16:14:23.608Z,56.53
2023-01-15T16:16:51.430Z,48.33
2023-01-15T16:19:20.594Z,49.78
2023-01-15T16:21:48.291Z,66.68
2023-01-15T16:24:26.177Z,50.67
2023-01-15T16:26:56.674Z,49.65
2023-01-15T16:29:26.923Z,63.13
2023-01-15T16:31:56.896Z,68.07
2023-01-15T16:34:26.115Z,64.22
2023-01-15T16:36:53.793Z,75.00
2023-01-15T16:39:24.047Z,76.68
2023-01-15T16:41:53.756Z,71.35
2023-01-15T16:44:43.982Z,76.95
2023-01-15T16:47:22.803Z,65.75
2023-01-15T16:49:50.716Z,63.00
2023-01-15T16:52:36.652Z,65.80
2023-01-15T16:55:04.378Z,75.75
2023-01-15T16:57:33.839Z,60.10
2023-01-15T17:00:02.444Z,71.60
2023-01-15T17:02:34.845Z,71.70
2023-01-15T17:05:02.547Z,74.60
2023-01-15T17:07:33.440Z,73.55
2023-01-15T17:10:01.974Z,73.85
2023-01-15T17:12:39.228Z,71.25
2023-01-15T17:15:15.840Z,53.85
2023-01-15T17:17:44.120Z,58.17
2023-01-15T17:20:15.229Z,53.05
2023-01-15T17:22:44.861Z,53.47
2023-01-15T17:25:30.999Z,46.25
2023-01-15T17:28:02.144Z,55.10
2023-01-15T17:30:31.289Z,45.92
2023-01-15T17:32:59.140Z,52.47
2023-01-15T17:35:28.682Z,48.70
2023-01-15T17:37:56.282Z,54.15
2023-01-15T17:40:24.022Z,61.75
2023-01-15T17:42:51.501Z,51.90
2023-01-15T17:45:22.034Z,50.75
2023-01-15T17:47:49.948Z,43.83
2023-01-15T17:50:17.780Z,41.17
2023-01-15T17:52:45.888Z,38.08
2023-01-15T17:55:33.294Z,38.38
2023-01-15T17:58:19.243Z,51.75
2023-01-15T18:01:06.012Z,42.08
2023-01-15T18:03:52.422Z,42.42
2023-01-15T18:06:20.714Z,50.17
2023-01-15T18:08:49.716Z,43.10
2023-01-15T18:11:17.347Z,43.92
2023-01-15T18:13:44.764Z,38.53
2023-01-15T18:16:12.345Z,41.72
2023-01-15T18:18:39.787Z,39.33
2023-01-15T18:21:07.275Z,36.58
2023-01-15T18:23:39.328Z,39.95
2023-01-15T18:26:07.811Z,35.47
2023-01-15T18:28:36.038Z,38.20
2023-01-15T18:31:04.270Z,38.65
2023-01-15T18:33:31.821Z,38.80
2023-01-15T18:36:17.178Z,34.60
2023-01-15T18:38:45.114Z,35.70
2023-01-15T18:41:33.833Z,37.40
2023-01-15T18:44:20.209Z,34.78
2023-01-15T18:46:50.461Z,33.17
2023-01-15T18:49:18.136Z,30.90
2023-01-15T18:52:05.672Z,31.08
2023-01-15T18:54:33.164Z,32.28
2023-01-15T18:57:00.512Z,34.97
2023-01-15T18:59:28.008Z,33.28
2023-01-15T19:01:56.518Z,34.72
2023-01-15T19:04:24.701Z,30.33
2023-01-15T19:06:52.094Z,28.58
2023-01-15T19:09:24.016Z,27.55
2023-01-15T19:11:53.727Z,33.05
2023-01-15T19:14:40.643Z,34.42
2023-01-15T19:17:29.563Z,32.17
2023-01-15T19:19:57.728Z,33.60
2023-01-15T19:22:43.852Z,34.25
2023-01-15T19:25:11.667Z,34.08
2023-01-15T19:27:39.708Z,26.30
2023-01-15T19:30:08.079Z,26.67
2023-01-15T19:32:35.770Z,24.42
2023-01-15T19:35:03.452Z,28.83
2023-01-15T19:37:31.973Z,29.42
2023-01-15T19:39:59.481Z,29.40
2023-01-15T19:42:45.404Z,27.58
2023-01-15T19:45:32.074Z,30.85
2023-01-15T19:48:18.596Z,30.23
2023-01-15T19:50:47.008Z,29.85
2023-01-15T19:53:15.207Z,28.88
2023-01-15T19:55:45.427Z,30.85
2023-01-15T19:58:14.080Z,29.65
2023-01-15T20:00:42.974Z,29.58
2023-01-15T20:03:12.177Z,28.77
2023-01-15T20:05:40.958Z,23.98
2023-01-15T20:08:17.870Z,31.08
2023-01-15T20:10:46.856Z,33.15
2023-01-15T20:13:34.304Z,33.78
2023-01-15T20:16:12.439Z,30.08
2023-01-15T20:18:40.055Z,31.10
2023-01-15T20:21:07.903Z,33.55
2023-01-15T20:23:36.726Z,32.65
2023-01-15T20:26:06.723Z,34.00
2023-01-15T20:28:36.012Z,31.23
2023-01-15T20:31:03.875Z,30.30
2023-01-15T20:33:31.340Z,32.40
2023-01-15T20:36:04.675Z,31.67
2023-01-15T20:38:32.346Z,30.55
2023-01-15T20:41:19.878Z,34.38
2023-01-15T20:44:06.236Z,30.17
2023-01-15T20:46:33.700Z,34.00
2023-01-15T20:49:19.469Z,31.45
2023-01-15T20:54:15.580Z,35.78
2023-01-15T20:56:43.043Z,29.63
2023-01-15T20:59:10.531Z,32.17
2023-01-15T21:01:40.504Z,30.67
2023-01-15T21:04:09.847Z,30.65
2023-01-15T21:06:37.432Z,28.92
2023-01-15T21:09:06.068Z,32.88
2023-01-15T21:11:33.706Z,35.88
2023-01-15T21:14:01.126Z,36.95
2023-01-15T21:16:28.534Z,33.60
2023-01-15T21:18:56.400Z,33.90
2023-01-15T21:21:23.755Z,35.60
2023-01-15T21:23:51.309Z,45.80
2023-01-15T21:26:18.668Z,45.72
2023-01-15T21:28:46.218Z,42.15
2023-01-15T21:31:14.139Z,42.65
2023-01-15T21:33:41.713Z,44.10
2023-01-15T21:36:10.098Z,42.70
2023-01-15T21:38:37.613Z,38.58
2023-01-15T21:41:12.809Z,41.58
2023-01-15T21:43:58.960Z,38.08
2023-01-15T21:46:27.991Z,38.70
2023-01-15T21:48:59.357Z,38.58
2023-01-15T21:51:27.287Z,37.13
2023-01-15T21:53:54.809Z,36.08
2023-01-15T21:56:22.424Z,36.33
2023-01-15T21:58:49.802Z,39.22
2023-01-15T22:01:18.548Z,37.42
2023-01-15T22:03:46.242Z,37.17
2023-01-15T22:06:13.893Z,36.30
2023-01-15T22:08:41.406Z,35.58
2023-01-15T22:11:10.150Z,34.30
2023-01-15T22:13:38.483Z,35.25
2023-01-15T22:16:06.170Z,36.63
2023-01-15T22:18:33.919Z,40.63
2023-01-15T22:21:02.447Z,39.03
2023-01-15T22:23:29.793Z,34.42
2023-01-15T22:25:57.265Z,34.08
2023-01-15T22:28:24.829Z,33.85
2023-01-15T22:30:52.366Z,37.97
2023-01-15T22:33:19.831Z,35.70
2023-01-15T22:35:56.464Z,35.47
2023-01-15T22:38:23.909Z,37.75
2023-01-15T22:40:51.295Z,37.33
2023-01-15T22:43:18.940Z,39.53
2023-01-15T22:45:46.535Z,36.78
2023-01-15T22:48:13.967Z,39.40
2023-01-15T22:50:41.359Z,38.97
2023-01-15T22:53:08.759Z,35.83
2023-01-15T22:55:36.658Z,39.83
2023-01-15T22:58:04.218Z,42.45
2023-01-15T23:00:31.877Z,39.88
2023-01-15T23:03:05.288Z,41.75
2023-01-15T23:05:37.157Z,39.13
2023-01-15T23:08:04.607Z,38.70
2023-01-15T23:10:31.935Z,40.75
2023-01-15T23:12:59.383Z,39.15
2023-01-15T23:15:26.832Z,41.50
2023-01-15T23:17:54.351Z,34.42
2023-01-15T23:20:21.800Z,35.85
2023-01-15T23:22:49.266Z,36.05
2023-01-15T23:25:16.780Z,40.47
2023-01-15T23:27:44.228Z,39.67
2023-01-15T23:30:11.887Z,38.28
2023-01-15T23:32:42.429Z,35.35
2023-01-15T23:35:10.484Z,34.50
2023-01-15T23:37:38.050Z,36.45
2023-01-15T23:40:06.320Z,39.20
2023-01-15T23:42:52.532Z,35.05
2023-01-15T23:45:38.400Z,36.40
2023-01-15T23:48:05.894Z,35.45
2023-01-15T23:50:33.300Z,36.90
2023-01-15T23:53:00.679Z,36.22
2023-01-15T23:55:28.091Z,37.95
2023-01-15T23:57:55.613Z,37.58
